sensor_id;sensor_type;location;lat;lon;timestamp;P1;durP1;ratioP1;P2;durP2;ratioP2
15295;SDS011;7749;49.964;7.890;2023-11-19T00:00:10;2.30;;;2.10;;
15295;SDS011;7749;49.964;7.890;2023-11-19T00:02:41;2.30;;;2.10;;
15295;SDS011;7749;49.964;7.890;2023-11-19T00:05:09;2.90;;;2.10;;
15295;SDS011;7749;49.964;7.890;2023-11-19T00:07:41;1.90;;;1.80;;
15295;SDS011;7749;49.964;7.890;2023-11-19T00:10:09;1.80;;;1.70;;
15295;SDS011;7749;49.964;7.890;2023-11-19T00:12:39;1.80;;;1.60;;
15295;SDS011;7749;49.964;7.890;2023-11-19T00:15:12;2.07;;;1.87;;
15295;SDS011;7749;49.964;7.890;2023-11-19T00:17:45;2.40;;;2.20;;
15295;SDS011;7749;49.964;7.890;2023-11-19T00:20:17;3.13;;;2.20;;
15295;SDS011;7749;49.964;7.890;2023-11-19T00:22:45;3.43;;;1.90;;
15295;SDS011;7749;49.964;7.890;2023-11-19T00:25:20;2.10;;;1.90;;
15295;SDS011;7749;49.964;7.890;2023-11-19T00:27:50;2.10;;;1.90;;
15295;SDS011;7749;49.964;7.890;2023-11-19T00:30:20;1.90;;;1.70;;
15295;SDS011;7749;49.964;7.890;2023-11-19T00:32:48;2.00;;;1.90;;
15295;SDS011;7749;49.964;7.890;2023-11-19T00:35:15;1.90;;;1.80;;
15295;SDS011;7749;49.964;7.890;2023-11-19T00:37:43;1.67;;;1.57;;
15295;SDS011;7749;49.964;7.890;2023-11-19T00:40:13;2.83;;;1.70;;
15295;SDS011;7749;49.964;7.890;2023-11-19T00:42:43;1.70;;;1.60;;
15295;SDS011;7749;49.964;7.890;2023-11-19T00:45:11;3.07;;;1.63;;
15295;SDS011;7749;49.964;7.890;2023-11-19T00:47:39;2.43;;;1.80;;
15295;SDS011;7749;49.964;7.890;2023-11-19T00:50:07;1.93;;;1.53;;
15295;SDS011;7749;49.964;7.890;2023-11-19T00:52:38;2.20;;;1.50;;
15295;SDS011;7749;49.964;7.890;2023-11-19T00:55:06;1.50;;;1.40;;
15295;SDS011;7749;49.964;7.890;2023-11-19T00:57:34;1.47;;;1.33;;
15295;SDS011;7749;49.964;7.890;2023-11-19T01:00:03;2.73;;;1.30;;
15295;SDS011;7749;49.964;7.890;2023-11-19T01:02:47;2.03;;;1.70;;
15295;SDS011;7749;49.964;7.890;2023-11-19T01:05:17;2.03;;;1.67;;
15295;SDS011;7749;49.964;7.890;2023-11-19T01:07:49;2.07;;;1.70;;
15295;SDS011;7749;49.964;7.890;2023-11-19T01:10:17;1.57;;;1.47;;
15295;SDS011;7749;49.964;7.890;2023-11-19T01:12:46;2.13;;;1.60;;
15295;SDS011;7749;49.964;7.890;2023-11-19T01:15:13;1.37;;;1.13;;
15295;SDS011;7749;49.964;7.890;2023-11-19T01:17:40;2.93;;;1.57;;
15295;SDS011;7749;49.964;7.890;2023-11-19T01:20:19;1.53;;;1.40;;
15295;SDS011;7749;49.964;7.890;2023-11-19T01:22:48;1.23;;;1.10;;
15295;SDS011;7749;49.964;7.890;2023-11-19T01:25:15;2.80;;;1.20;;
15295;SDS011;7749;49.964;7.890;2023-11-19T01:27:43;1.30;;;1.20;;
15295;SDS011;7749;49.964;7.890;2023-11-19T01:30:11;1.40;;;1.30;;
15295;SDS011;7749;49.964;7.890;2023-11-19T01:32:41;1.90;;;1.20;;
15295;SDS011;7749;49.964;7.890;2023-11-19T01:35:09;0.97;;;0.93;;
15295;SDS011;7749;49.964;7.890;2023-11-19T01:37:37;1.03;;;1.00;;
15295;SDS011;7749;49.964;7.890;2023-11-19T01:40:04;1.00;;;1.00;;
15295;SDS011;7749;49.964;7.890;2023-11-19T01:42:37;1.63;;;1.43;;
15295;SDS011;7749;49.964;7.890;2023-11-19T01:45:05;1.00;;;0.90;;
15295;SDS011;7749;49.964;7.890;2023-11-19T01:47:35;2.40;;;1.20;;
15295;SDS011;7749;49.964;7.890;2023-11-19T01:50:03;1.27;;;1.00;;
15295;SDS011;7749;49.964;7.890;2023-11-19T01:52:34;1.63;;;1.20;;
15295;SDS011;7749;49.964;7.890;2023-11-19T01:55:04;0.97;;;0.73;;
15295;SDS011;7749;49.964;7.890;2023-11-19T01:57:34;1.10;;;1.10;;
15295;SDS011;7749;49.964;7.890;2023-11-19T02:00:05;1.57;;;0.90;;
15295;SDS011;7749;49.964;7.890;2023-11-19T02:02:33;2.23;;;0.80;;
15295;SDS011;7749;49.964;7.890;2023-11-19T02:05:02;1.77;;;0.90;;
15295;SDS011;7749;49.964;7.890;2023-11-19T02:07:30;0.80;;;0.80;;
15295;SDS011;7749;49.964;7.890;2023-11-19T02:09:57;1.73;;;0.83;;
15295;SDS011;7749;49.964;7.890;2023-11-19T02:12:27;0.80;;;0.80;;
15295;SDS011;7749;49.964;7.890;2023-11-19T02:15:05;1.20;;;0.90;;
15295;SDS011;7749;49.964;7.890;2023-11-19T02:17:33;0.97;;;0.83;;
15295;SDS011;7749;49.964;7.890;2023-11-19T02:20:04;0.77;;;0.77;;
15295;SDS011;7749;49.964;7.890;2023-11-19T02:22:38;0.70;;;0.70;;
15295;SDS011;7749;49.964;7.890;2023-11-19T02:25:11;1.07;;;0.60;;
15295;SDS011;7749;49.964;7.890;2023-11-19T02:27:51;0.60;;;0.60;;
15295;SDS011;7749;49.964;7.890;2023-11-19T02:30:24;0.70;;;0.70;;
15295;SDS011;7749;49.964;7.890;2023-11-19T02:32:55;1.00;;;0.80;;
15295;SDS011;7749;49.964;7.890;2023-11-19T02:35:30;0.67;;;0.60;;
15295;SDS011;7749;49.964;7.890;2023-11-19T02:37:58;1.37;;;0.70;;
15295;SDS011;7749;49.964;7.890;2023-11-19T02:40:27;1.17;;;0.83;;
15295;SDS011;7749;49.964;7.890;2023-11-19T02:42:55;1.67;;;0.80;;
15295;SDS011;7749;49.964;7.890;2023-11-19T02:45:23;0.80;;;0.80;;
15295;SDS011;7749;49.964;7.890;2023-11-19T02:47:52;0.80;;;0.60;;
15295;SDS011;7749;49.964;7.890;2023-11-19T02:50:20;1.10;;;0.70;;
15295;SDS011;7749;49.964;7.890;2023-11-19T02:52:55;1.53;;;0.70;;
15295;SDS011;7749;49.964;7.890;2023-11-19T02:55:24;3.50;;;0.80;;
15295;SDS011;7749;49.964;7.890;2023-11-19T02:57:52;2.07;;;0.70;;
15295;SDS011;7749;49.964;7.890;2023-11-19T03:00:21;2.07;;;0.80;;
15295;SDS011;7749;49.964;7.890;2023-11-19T03:02:59;1.47;;;0.70;;
15295;SDS011;7749;49.964;7.890;2023-11-19T03:05:32;2.20;;;0.73;;
15295;SDS011;7749;49.964;7.890;2023-11-19T03:07:59;0.97;;;0.70;;
15295;SDS011;7749;49.964;7.890;2023-11-19T03:10:27;0.80;;;0.70;;
15295;SDS011;7749;49.964;7.890;2023-11-19T03:12:56;1.87;;;0.70;;
15295;SDS011;7749;49.964;7.890;2023-11-19T03:15:24;0.73;;;0.73;;
15295;SDS011;7749;49.964;7.890;2023-11-19T03:17:51;0.70;;;0.70;;
15295;SDS011;7749;49.964;7.890;2023-11-19T03:20:19;2.50;;;0.80;;
15295;SDS011;7749;49.964;7.890;2023-11-19T03:22:47;0.83;;;0.77;;
15295;SDS011;7749;49.964;7.890;2023-11-19T03:25:15;0.80;;;0.80;;
15295;SDS011;7749;49.964;7.890;2023-11-19T03:27:43;1.77;;;0.90;;
15295;SDS011;7749;49.964;7.890;2023-11-19T03:30:10;0.60;;;0.60;;
15295;SDS011;7749;49.964;7.890;2023-11-19T03:32:38;1.43;;;0.70;;
15295;SDS011;7749;49.964;7.890;2023-11-19T03:35:06;0.60;;;0.60;;
15295;SDS011;7749;49.964;7.890;2023-11-19T03:37:34;0.70;;;0.70;;
15295;SDS011;7749;49.964;7.890;2023-11-19T03:40:02;1.90;;;0.60;;
15295;SDS011;7749;49.964;7.890;2023-11-19T03:42:31;3.30;;;0.67;;
15295;SDS011;7749;49.964;7.890;2023-11-19T03:44:58;0.70;;;0.70;;
15295;SDS011;7749;49.964;7.890;2023-11-19T03:47:26;0.90;;;0.77;;
15295;SDS011;7749;49.964;7.890;2023-11-19T03:49:54;1.07;;;0.80;;
15295;SDS011;7749;49.964;7.890;2023-11-19T03:52:22;0.90;;;0.73;;
15295;SDS011;7749;49.964;7.890;2023-11-19T03:54:49;1.00;;;0.60;;
15295;SDS011;7749;49.964;7.890;2023-11-19T03:57:17;0.90;;;0.80;;
15295;SDS011;7749;49.964;7.890;2023-11-19T03:59:45;0.87;;;0.87;;
15295;SDS011;7749;49.964;7.890;2023-11-19T04:02:13;2.10;;;0.80;;
15295;SDS011;7749;49.964;7.890;2023-11-19T04:04:40;0.60;;;0.60;;
15295;SDS011;7749;49.964;7.890;2023-11-19T04:07:08;0.70;;;0.70;;
15295;SDS011;7749;49.964;7.890;2023-11-19T04:09:36;1.27;;;0.80;;
15295;SDS011;7749;49.964;7.890;2023-11-19T04:12:04;0.90;;;0.60;;
15295;SDS011;7749;49.964;7.890;2023-11-19T04:14:32;1.93;;;0.70;;
15295;SDS011;7749;49.964;7.890;2023-11-19T04:16:59;1.30;;;0.80;;
15295;SDS011;7749;49.964;7.890;2023-11-19T04:19:27;0.73;;;0.70;;
15295;SDS011;7749;49.964;7.890;2023-11-19T04:21:55;1.03;;;0.80;;
15295;SDS011;7749;49.964;7.890;2023-11-19T04:24:22;0.77;;;0.60;;
15295;SDS011;7749;49.964;7.890;2023-11-19T04:26:50;1.10;;;0.60;;
15295;SDS011;7749;49.964;7.890;2023-11-19T04:29:17;0.80;;;0.80;;
15295;SDS011;7749;49.964;7.890;2023-11-19T04:31:45;0.90;;;0.90;;
15295;SDS011;7749;49.964;7.890;2023-11-19T04:34:12;0.70;;;0.70;;
15295;SDS011;7749;49.964;7.890;2023-11-19T04:36:40;0.90;;;0.70;;
15295;SDS011;7749;49.964;7.890;2023-11-19T04:39:07;0.50;;;0.50;;
15295;SDS011;7749;49.964;7.890;2023-11-19T04:41:36;1.10;;;0.70;;
15295;SDS011;7749;49.964;7.890;2023-11-19T04:44:03;0.80;;;0.70;;
15295;SDS011;7749;49.964;7.890;2023-11-19T04:46:31;0.80;;;0.60;;
15295;SDS011;7749;49.964;7.890;2023-11-19T04:48:58;1.27;;;0.80;;
15295;SDS011;7749;49.964;7.890;2023-11-19T04:51:26;0.60;;;0.60;;
15295;SDS011;7749;49.964;7.890;2023-11-19T04:53:53;1.63;;;0.80;;
15295;SDS011;7749;49.964;7.890;2023-11-19T04:56:20;1.20;;;0.77;;
15295;SDS011;7749;49.964;7.890;2023-11-19T04:58:49;0.60;;;0.60;;
15295;SDS011;7749;49.964;7.890;2023-11-19T05:01:17;1.23;;;0.60;;
15295;SDS011;7749;49.964;7.890;2023-11-19T05:03:44;1.57;;;0.80;;
15295;SDS011;7749;49.964;7.890;2023-11-19T05:06:12;1.20;;;0.60;;
15295;SDS011;7749;49.964;7.890;2023-11-19T05:08:40;0.70;;;0.70;;
15295;SDS011;7749;49.964;7.890;2023-11-19T05:11:07;1.27;;;0.80;;
15295;SDS011;7749;49.964;7.890;2023-11-19T05:13:37;1.67;;;0.80;;
15295;SDS011;7749;49.964;7.890;2023-11-19T05:16:05;0.77;;;0.73;;
15295;SDS011;7749;49.964;7.890;2023-11-19T05:18:33;1.20;;;1.10;;
15295;SDS011;7749;49.964;7.890;2023-11-19T05:21:00;2.43;;;1.37;;
15295;SDS011;7749;49.964;7.890;2023-11-19T05:23:28;1.73;;;1.30;;
15295;SDS011;7749;49.964;7.890;2023-11-19T05:25:55;2.50;;;1.40;;
15295;SDS011;7749;49.964;7.890;2023-11-19T05:28:25;1.53;;;1.43;;
15295;SDS011;7749;49.964;7.890;2023-11-19T05:30:53;2.37;;;1.30;;
15295;SDS011;7749;49.964;7.890;2023-11-19T05:33:21;1.53;;;1.40;;
15295;SDS011;7749;49.964;7.890;2023-11-19T05:35:48;1.90;;;1.50;;
15295;SDS011;7749;49.964;7.890;2023-11-19T05:38:16;2.83;;;1.63;;
15295;SDS011;7749;49.964;7.890;2023-11-19T05:40:43;2.73;;;1.50;;
15295;SDS011;7749;49.964;7.890;2023-11-19T05:43:11;26.50;;;21.03;;
15295;SDS011;7749;49.964;7.890;2023-11-19T05:45:38;4.07;;;1.80;;
15295;SDS011;7749;49.964;7.890;2023-11-19T05:48:06;1.70;;;1.53;;
15295;SDS011;7749;49.964;7.890;2023-11-19T05:50:33;3.13;;;1.97;;
15295;SDS011;7749;49.964;7.890;2023-11-19T05:53:01;2.33;;;2.00;;
15295;SDS011;7749;49.964;7.890;2023-11-19T05:55:28;2.33;;;2.03;;
15295;SDS011;7749;49.964;7.890;2023-11-19T05:57:56;3.33;;;2.50;;
15295;SDS011;7749;49.964;7.890;2023-11-19T06:00:23;2.70;;;2.43;;
15295;SDS011;7749;49.964;7.890;2023-11-19T06:02:51;2.53;;;2.03;;
15295;SDS011;7749;49.964;7.890;2023-11-19T06:05:18;3.07;;;1.70;;
15295;SDS011;7749;49.964;7.890;2023-11-19T06:07:45;3.07;;;1.80;;
15295;SDS011;7749;49.964;7.890;2023-11-19T06:10:13;1.87;;;1.77;;
15295;SDS011;7749;49.964;7.890;2023-11-19T06:12:44;3.30;;;2.10;;
15295;SDS011;7749;49.964;7.890;2023-11-19T06:15:13;2.30;;;2.10;;
15295;SDS011;7749;49.964;7.890;2023-11-19T06:17:40;2.33;;;2.10;;
15295;SDS011;7749;49.964;7.890;2023-11-19T06:20:08;3.97;;;3.33;;
15295;SDS011;7749;49.964;7.890;2023-11-19T06:22:38;4.60;;;4.20;;
15295;SDS011;7749;49.964;7.890;2023-11-19T06:25:06;2.57;;;2.30;;
15295;SDS011;7749;49.964;7.890;2023-11-19T06:27:35;2.40;;;2.20;;
15295;SDS011;7749;49.964;7.890;2023-11-19T06:30:02;2.33;;;2.13;;
15295;SDS011;7749;49.964;7.890;2023-11-19T06:32:30;2.00;;;1.80;;
15295;SDS011;7749;49.964;7.890;2023-11-19T06:34:59;2.53;;;2.33;;
15295;SDS011;7749;49.964;7.890;2023-11-19T06:37:26;3.60;;;2.30;;
15295;SDS011;7749;49.964;7.890;2023-11-19T06:39:54;2.83;;;2.30;;
15295;SDS011;7749;49.964;7.890;2023-11-19T06:42:21;2.80;;;2.40;;
15295;SDS011;7749;49.964;7.890;2023-11-19T06:44:49;3.00;;;2.70;;
15295;SDS011;7749;49.964;7.890;2023-11-19T06:47:17;3.73;;;3.20;;
15295;SDS011;7749;49.964;7.890;2023-11-19T06:49:44;12.07;;;10.27;;
15295;SDS011;7749;49.964;7.890;2023-11-19T06:52:12;15.03;;;12.50;;
15295;SDS011;7749;49.964;7.890;2023-11-19T06:54:39;20.33;;;16.10;;
15295;SDS011;7749;49.964;7.890;2023-11-19T06:57:07;30.87;;;22.93;;
15295;SDS011;7749;49.964;7.890;2023-11-19T06:59:36;12.73;;;11.03;;
15295;SDS011;7749;49.964;7.890;2023-11-19T07:02:04;13.23;;;11.93;;
15295;SDS011;7749;49.964;7.890;2023-11-19T07:04:34;20.07;;;16.33;;
15295;SDS011;7749;49.964;7.890;2023-11-19T07:07:01;13.33;;;11.63;;
15295;SDS011;7749;49.964;7.890;2023-11-19T07:09:29;21.03;;;18.33;;
15295;SDS011;7749;49.964;7.890;2023-11-19T07:11:56;36.27;;;32.00;;
15295;SDS011;7749;49.964;7.890;2023-11-19T07:14:25;21.80;;;19.23;;
15295;SDS011;7749;49.964;7.890;2023-11-19T07:16:53;7.87;;;7.00;;
15295;SDS011;7749;49.964;7.890;2023-11-19T07:19:22;8.10;;;6.47;;
15295;SDS011;7749;49.964;7.890;2023-11-19T07:21:50;7.57;;;6.07;;
15295;SDS011;7749;49.964;7.890;2023-11-19T07:24:18;4.57;;;3.90;;
15295;SDS011;7749;49.964;7.890;2023-11-19T07:26:45;3.87;;;3.57;;
15295;SDS011;7749;49.964;7.890;2023-11-19T07:29:17;3.80;;;3.37;;
15295;SDS011;7749;49.964;7.890;2023-11-19T07:31:55;4.43;;;4.03;;
15295;SDS011;7749;49.964;7.890;2023-11-19T07:34:24;9.57;;;8.53;;
15295;SDS011;7749;49.964;7.890;2023-11-19T07:36:52;5.97;;;5.37;;
15295;SDS011;7749;49.964;7.890;2023-11-19T07:39:19;6.53;;;5.93;;
15295;SDS011;7749;49.964;7.890;2023-11-19T07:41:50;6.23;;;5.50;;
15295;SDS011;7749;49.964;7.890;2023-11-19T07:44:17;5.77;;;5.23;;
15295;SDS011;7749;49.964;7.890;2023-11-19T07:46:45;5.20;;;4.70;;
15295;SDS011;7749;49.964;7.890;2023-11-19T07:49:12;6.17;;;4.60;;
15295;SDS011;7749;49.964;7.890;2023-11-19T07:51:40;9.10;;;4.80;;
15295;SDS011;7749;49.964;7.890;2023-11-19T07:54:08;3.53;;;3.10;;
15295;SDS011;7749;49.964;7.890;2023-11-19T07:56:36;4.67;;;4.03;;
15295;SDS011;7749;49.964;7.890;2023-11-19T07:59:03;4.40;;;3.23;;
15295;SDS011;7749;49.964;7.890;2023-11-19T08:01:31;3.83;;;3.53;;
15295;SDS011;7749;49.964;7.890;2023-11-19T08:03:59;4.17;;;3.77;;
15295;SDS011;7749;49.964;7.890;2023-11-19T08:06:29;5.10;;;3.50;;
15295;SDS011;7749;49.964;7.890;2023-11-19T08:08:56;3.37;;;3.07;;
15295;SDS011;7749;49.964;7.890;2023-11-19T08:11:24;3.10;;;2.77;;
15295;SDS011;7749;49.964;7.890;2023-11-19T08:13:51;3.10;;;2.20;;
15295;SDS011;7749;49.964;7.890;2023-11-19T08:16:19;2.97;;;2.70;;
15295;SDS011;7749;49.964;7.890;2023-11-19T08:18:46;3.57;;;2.80;;
15295;SDS011;7749;49.964;7.890;2023-11-19T08:21:14;2.80;;;2.60;;
15295;SDS011;7749;49.964;7.890;2023-11-19T08:23:41;3.47;;;2.40;;
15295;SDS011;7749;49.964;7.890;2023-11-19T08:26:09;3.00;;;2.43;;
15295;SDS011;7749;49.964;7.890;2023-11-19T08:28:37;2.60;;;2.23;;
15295;SDS011;7749;49.964;7.890;2023-11-19T08:31:04;6.57;;;2.50;;
15295;SDS011;7749;49.964;7.890;2023-11-19T08:33:32;4.17;;;1.90;;
15295;SDS011;7749;49.964;7.890;2023-11-19T08:35:59;3.63;;;1.90;;
15295;SDS011;7749;49.964;7.890;2023-11-19T08:38:27;6.80;;;1.90;;
15295;SDS011;7749;49.964;7.890;2023-11-19T08:40:58;5.63;;;1.60;;
15295;SDS011;7749;49.964;7.890;2023-11-19T08:43:27;5.13;;;1.93;;
15295;SDS011;7749;49.964;7.890;2023-11-19T08:45:55;7.23;;;1.83;;
15295;SDS011;7749;49.964;7.890;2023-11-19T08:48:22;8.10;;;1.80;;
15295;SDS011;7749;49.964;7.890;2023-11-19T08:50:50;6.07;;;1.60;;
15295;SDS011;7749;49.964;7.890;2023-11-19T08:53:17;6.27;;;1.83;;
15295;SDS011;7749;49.964;7.890;2023-11-19T08:55:45;4.00;;;1.50;;
15295;SDS011;7749;49.964;7.890;2023-11-19T08:58:12;4.27;;;1.60;;
15295;SDS011;7749;49.964;7.890;2023-11-19T09:00:40;3.73;;;1.40;;
15295;SDS011;7749;49.964;7.890;2023-11-19T09:03:07;8.60;;;1.37;;
15295;SDS011;7749;49.964;7.890;2023-11-19T09:05:36;12.23;;;2.17;;
15295;SDS011;7749;49.964;7.890;2023-11-19T09:08:05;6.10;;;1.70;;
15295;SDS011;7749;49.964;7.890;2023-11-19T09:10:33;6.87;;;1.83;;
15295;SDS011;7749;49.964;7.890;2023-11-19T09:13:01;4.67;;;1.60;;
15295;SDS011;7749;49.964;7.890;2023-11-19T09:15:29;7.93;;;2.10;;
15295;SDS011;7749;49.964;7.890;2023-11-19T09:17:56;7.13;;;2.17;;
15295;SDS011;7749;49.964;7.890;2023-11-19T09:20:24;7.43;;;2.10;;
15295;SDS011;7749;49.964;7.890;2023-11-19T09:22:51;7.73;;;1.73;;
15295;SDS011;7749;49.964;7.890;2023-11-19T09:25:19;8.53;;;1.80;;
15295;SDS011;7749;49.964;7.890;2023-11-19T09:27:46;11.67;;;2.47;;
15295;SDS011;7749;49.964;7.890;2023-11-19T09:30:14;7.00;;;2.37;;
15295;SDS011;7749;49.964;7.890;2023-11-19T09:32:41;6.63;;;2.03;;
15295;SDS011;7749;49.964;7.890;2023-11-19T09:35:12;6.57;;;1.87;;
15295;SDS011;7749;49.964;7.890;2023-11-19T09:37:43;6.50;;;1.90;;
15295;SDS011;7749;49.964;7.890;2023-11-19T09:40:10;8.90;;;1.97;;
15295;SDS011;7749;49.964;7.890;2023-11-19T09:42:42;6.77;;;2.20;;
15295;SDS011;7749;49.964;7.890;2023-11-19T09:45:14;6.13;;;1.90;;
15295;SDS011;7749;49.964;7.890;2023-11-19T09:47:43;6.03;;;1.87;;
15295;SDS011;7749;49.964;7.890;2023-11-19T09:50:18;9.67;;;2.00;;
15295;SDS011;7749;49.964;7.890;2023-11-19T09:52:47;6.23;;;1.97;;
15295;SDS011;7749;49.964;7.890;2023-11-19T09:55:14;9.07;;;1.90;;
15295;SDS011;7749;49.964;7.890;2023-11-19T09:57:42;6.77;;;1.93;;
15295;SDS011;7749;49.964;7.890;2023-11-19T10:00:12;9.67;;;2.00;;
15295;SDS011;7749;49.964;7.890;2023-11-19T10:02:42;5.07;;;1.80;;
15295;SDS011;7749;49.964;7.890;2023-11-19T10:05:14;5.83;;;1.73;;
15295;SDS011;7749;49.964;7.890;2023-11-19T10:07:42;7.23;;;2.10;;
15295;SDS011;7749;49.964;7.890;2023-11-19T10:10:12;5.60;;;1.50;;
15295;SDS011;7749;49.964;7.890;2023-11-19T10:12:45;8.40;;;2.30;;
15295;SDS011;7749;49.964;7.890;2023-11-19T10:15:23;6.87;;;1.93;;
15295;SDS011;7749;49.964;7.890;2023-11-19T10:17:56;7.30;;;1.80;;
15295;SDS011;7749;49.964;7.890;2023-11-19T10:20:24;6.63;;;1.70;;
15295;SDS011;7749;49.964;7.890;2023-11-19T10:22:53;9.50;;;2.53;;
15295;SDS011;7749;49.964;7.890;2023-11-19T10:25:22;10.30;;;2.50;;
15295;SDS011;7749;49.964;7.890;2023-11-19T10:27:54;8.07;;;1.53;;
15295;SDS011;7749;49.964;7.890;2023-11-19T10:30:26;7.43;;;2.13;;
15295;SDS011;7749;49.964;7.890;2023-11-19T10:35:51;7.33;;;1.93;;
15295;SDS011;7749;49.964;7.890;2023-11-19T10:38:29;6.47;;;1.60;;
15295;SDS011;7749;49.964;7.890;2023-11-19T10:40:57;8.83;;;1.70;;
15295;SDS011;7749;49.964;7.890;2023-11-19T10:43:26;8.07;;;1.90;;
15295;SDS011;7749;49.964;7.890;2023-11-19T10:45:55;8.47;;;1.90;;
15295;SDS011;7749;49.964;7.890;2023-11-19T10:48:36;7.10;;;1.47;;
15295;SDS011;7749;49.964;7.890;2023-11-19T10:51:05;4.10;;;1.77;;
15295;SDS011;7749;49.964;7.890;2023-11-19T10:53:36;6.53;;;2.30;;
15295;SDS011;7749;49.964;7.890;2023-11-19T10:56:06;3.78;;;1.65;;
15295;SDS011;7749;49.964;7.890;2023-11-19T10:58:38;6.22;;;1.90;;
15295;SDS011;7749;49.964;7.890;2023-11-19T11:01:19;7.93;;;2.28;;
15295;SDS011;7749;49.964;7.890;2023-11-19T11:03:50;4.47;;;1.73;;
15295;SDS011;7749;49.964;7.890;2023-11-19T11:06:21;5.10;;;1.73;;
15295;SDS011;7749;49.964;7.890;2023-11-19T11:08:49;2.75;;;1.35;;
15295;SDS011;7749;49.964;7.890;2023-11-19T11:11:18;5.53;;;1.65;;
15295;SDS011;7749;49.964;7.890;2023-11-19T11:13:53;3.47;;;1.30;;
15295;SDS011;7749;49.964;7.890;2023-11-19T11:16:22;5.15;;;1.30;;
15295;SDS011;7749;49.964;7.890;2023-11-19T11:18:51;4.43;;;2.10;;
15295;SDS011;7749;49.964;7.890;2023-11-19T11:21:22;3.42;;;1.40;;
15295;SDS011;7749;49.964;7.890;2023-11-19T11:29:37;4.75;;;2.13;;
15295;SDS011;7749;49.964;7.890;2023-11-19T11:38:11;4.15;;;1.38;;
15295;SDS011;7749;49.964;7.890;2023-11-19T11:40:41;3.55;;;1.38;;
15295;SDS011;7749;49.964;7.890;2023-11-19T11:49:02;4.82;;;1.52;;
15295;SDS011;7749;49.964;7.890;2023-11-19T11:54:25;5.90;;;1.63;;
15295;SDS011;7749;49.964;7.890;2023-11-19T12:02:20;8.23;;;1.88;;
15295;SDS011;7749;49.964;7.890;2023-11-19T12:04:49;5.68;;;1.88;;
15295;SDS011;7749;49.964;7.890;2023-11-19T12:07:22;7.40;;;1.65;;
15295;SDS011;7749;49.964;7.890;2023-11-19T12:10:07;7.23;;;1.60;;
15295;SDS011;7749;49.964;7.890;2023-11-19T12:12:39;5.40;;;1.92;;
15295;SDS011;7749;49.964;7.890;2023-11-19T12:15:08;4.75;;;1.50;;
15295;SDS011;7749;49.964;7.890;2023-11-19T12:17:37;9.73;;;1.83;;
15295;SDS011;7749;49.964;7.890;2023-11-19T12:20:11;10.38;;;2.13;;
15295;SDS011;7749;49.964;7.890;2023-11-19T12:22:41;6.60;;;1.70;;
15295;SDS011;7749;49.964;7.890;2023-11-19T12:25:10;8.20;;;1.80;;
15295;SDS011;7749;49.964;7.890;2023-11-19T12:27:39;9.60;;;1.83;;
15295;SDS011;7749;49.964;7.890;2023-11-19T12:30:08;11.60;;;2.07;;
15295;SDS011;7749;49.964;7.890;2023-11-19T12:32:39;6.07;;;1.70;;
15295;SDS011;7749;49.964;7.890;2023-11-19T12:35:10;7.20;;;1.87;;
15295;SDS011;7749;49.964;7.890;2023-11-19T12:37:41;7.37;;;2.10;;
15295;SDS011;7749;49.964;7.890;2023-11-19T12:40:31;6.40;;;1.73;;
15295;SDS011;7749;49.964;7.890;2023-11-19T12:42:57;7.20;;;2.03;;
15295;SDS011;7749;49.964;7.890;2023-11-19T12:45:35;7.40;;;1.90;;
15295;SDS011;7749;49.964;7.890;2023-11-19T12:48:07;7.00;;;1.88;;
15295;SDS011;7749;49.964;7.890;2023-11-19T12:50:57;4.68;;;1.58;;
15295;SDS011;7749;49.964;7.890;2023-11-19T12:53:28;5.32;;;1.77;;
15295;SDS011;7749;49.964;7.890;2023-11-19T12:55:56;7.28;;;2.08;;
15295;SDS011;7749;49.964;7.890;2023-11-19T12:58:35;4.50;;;1.83;;
15295;SDS011;7749;49.964;7.890;2023-11-19T13:01:03;5.43;;;1.77;;
15295;SDS011;7749;49.964;7.890;2023-11-19T13:03:35;6.70;;;2.03;;
15295;SDS011;7749;49.964;7.890;2023-11-19T13:06:05;3.97;;;1.70;;
15295;SDS011;7749;49.964;7.890;2023-11-19T13:08:45;6.40;;;1.77;;
15295;SDS011;7749;49.964;7.890;2023-11-19T13:11:31;5.35;;;2.25;;
15295;SDS011;7749;49.964;7.890;2023-11-19T13:14:00;5.43;;;1.80;;
15295;SDS011;7749;49.964;7.890;2023-11-19T13:16:31;5.65;;;1.45;;
15295;SDS011;7749;49.964;7.890;2023-11-19T13:18:59;5.05;;;1.98;;
15295;SDS011;7749;49.964;7.890;2023-11-19T13:21:27;5.22;;;1.90;;
15295;SDS011;7749;49.964;7.890;2023-11-19T13:23:56;4.47;;;1.42;;
15295;SDS011;7749;49.964;7.890;2023-11-19T13:26:24;8.13;;;2.17;;
15295;SDS011;7749;49.964;7.890;2023-11-19T13:28:51;5.53;;;1.90;;
15295;SDS011;7749;49.964;7.890;2023-11-19T13:31:19;3.45;;;1.85;;
15295;SDS011;7749;49.964;7.890;2023-11-19T13:33:46;5.82;;;1.67;;
15295;SDS011;7749;49.964;7.890;2023-11-19T13:36:14;5.25;;;1.90;;
15295;SDS011;7749;49.964;7.890;2023-11-19T13:38:43;5.35;;;1.52;;
15295;SDS011;7749;49.964;7.890;2023-11-19T13:41:12;6.70;;;2.17;;
15295;SDS011;7749;49.964;7.890;2023-11-19T13:43:40;5.35;;;1.92;;
15295;SDS011;7749;49.964;7.890;2023-11-19T13:46:08;6.90;;;2.20;;
15295;SDS011;7749;49.964;7.890;2023-11-19T13:48:37;7.57;;;2.53;;
15295;SDS011;7749;49.964;7.890;2023-11-19T13:51:05;7.00;;;1.90;;
15295;SDS011;7749;49.964;7.890;2023-11-19T13:53:33;5.65;;;1.83;;
15295;SDS011;7749;49.964;7.890;2023-11-19T13:56:03;5.68;;;1.98;;
15295;SDS011;7749;49.964;7.890;2023-11-19T13:58:31;6.93;;;3.05;;
15295;SDS011;7749;49.964;7.890;2023-11-19T14:00:59;7.95;;;2.03;;
15295;SDS011;7749;49.964;7.890;2023-11-19T14:03:26;6.97;;;2.13;;
15295;SDS011;7749;49.964;7.890;2023-11-19T14:05:54;7.60;;;2.33;;
15295;SDS011;7749;49.964;7.890;2023-11-19T14:08:22;8.32;;;2.30;;
15295;SDS011;7749;49.964;7.890;2023-11-19T14:10:52;8.65;;;2.35;;
15295;SDS011;7749;49.964;7.890;2023-11-19T14:13:23;6.38;;;2.28;;
15295;SDS011;7749;49.964;7.890;2023-11-19T14:15:51;5.17;;;1.50;;
15295;SDS011;7749;49.964;7.890;2023-11-19T14:18:19;8.67;;;2.00;;
15295;SDS011;7749;49.964;7.890;2023-11-19T14:20:46;6.33;;;2.27;;
15295;SDS011;7749;49.964;7.890;2023-11-19T14:23:17;8.30;;;1.90;;
15295;SDS011;7749;49.964;7.890;2023-11-19T14:25:44;6.97;;;2.00;;
15295;SDS011;7749;49.964;7.890;2023-11-19T14:28:12;6.07;;;2.20;;
15295;SDS011;7749;49.964;7.890;2023-11-19T14:30:39;7.03;;;2.37;;
15295;SDS011;7749;49.964;7.890;2023-11-19T14:33:08;9.30;;;2.10;;
15295;SDS011;7749;49.964;7.890;2023-11-19T14:35:36;7.53;;;1.83;;
15295;SDS011;7749;49.964;7.890;2023-11-19T14:38:03;6.80;;;1.93;;
15295;SDS011;7749;49.964;7.890;2023-11-19T14:40:34;6.97;;;2.00;;
15295;SDS011;7749;49.964;7.890;2023-11-19T14:43:04;8.07;;;2.00;;
15295;SDS011;7749;49.964;7.890;2023-11-19T14:45:31;7.67;;;2.10;;
15295;SDS011;7749;49.964;7.890;2023-11-19T14:48:11;5.60;;;1.67;;
15295;SDS011;7749;49.964;7.890;2023-11-19T14:50:38;7.97;;;2.00;;
15295;SDS011;7749;49.964;7.890;2023-11-19T14:53:06;10.13;;;2.53;;
15295;SDS011;7749;49.964;7.890;2023-11-19T14:55:33;6.80;;;1.90;;
15295;SDS011;7749;49.964;7.890;2023-11-19T14:58:01;8.97;;;3.43;;
15295;SDS011;7749;49.964;7.890;2023-11-19T15:00:36;5.90;;;2.00;;
15295;SDS011;7749;49.964;7.890;2023-11-19T15:03:03;4.50;;;1.70;;
15295;SDS011;7749;49.964;7.890;2023-11-19T15:05:31;10.23;;;2.00;;
15295;SDS011;7749;49.964;7.890;2023-11-19T15:07:59;8.20;;;2.30;;
15295;SDS011;7749;49.964;7.890;2023-11-19T15:10:26;9.60;;;2.30;;
15295;SDS011;7749;49.964;7.890;2023-11-19T15:12:54;7.73;;;2.27;;
15295;SDS011;7749;49.964;7.890;2023-11-19T15:15:21;8.73;;;1.97;;
15295;SDS011;7749;49.964;7.890;2023-11-19T15:17:51;6.87;;;2.00;;
15295;SDS011;7749;49.964;7.890;2023-11-19T15:20:19;10.07;;;1.77;;
15295;SDS011;7749;49.964;7.890;2023-11-19T15:22:48;8.10;;;2.00;;
15295;SDS011;7749;49.964;7.890;2023-11-19T15:25:15;9.43;;;2.37;;
15295;SDS011;7749;49.964;7.890;2023-11-19T15:27:42;8.67;;;1.87;;
15295;SDS011;7749;49.964;7.890;2023-11-19T15:30:10;6.93;;;2.00;;
15295;SDS011;7749;49.964;7.890;2023-11-19T15:32:38;10.03;;;2.93;;
15295;SDS011;7749;49.964;7.890;2023-11-19T15:35:06;7.90;;;2.27;;
15295;SDS011;7749;49.964;7.890;2023-11-19T15:37:36;9.47;;;2.33;;
15295;SDS011;7749;49.964;7.890;2023-11-19T15:40:05;7.20;;;2.00;;